Latest Weather Observations for Hogan Island

IDT60801

Issued at 5:22 pm EST Saturday 22 September 2018 (issued every 10 minutes, with the page automatically refreshed every 10 minutes)

About weather observations | Map of weather stations | Latest weather observations for TAS | Other Formats
Station Details ID: 200838 Name: HOGAN ISLAND Lat: -39.22 Lon: 146.98 Height: 116.0 m
Data from the previous 72 hours. | See also: Recent months at Hogan Island
Date/Time
EST
Temp
°C
App
Temp
°C
Dew
Point
°C
Rel
Hum
%
Delta-T
°C
Wind Press
QNH
hPa
Press
MSL
hPa
Rain since
9am
mm
Dir  Spd
km/h
Gust
km/h
Spd
kts
Gust
kts
22/05:00pm 11.2 1.1 9.1 87 1.1 W 52 57 28 31 1023.5 - 0.0
22/04:30pm 10.9 -0.6 8.7 86 1.1 W 59 67 32 36 1023.3 - 0.0
22/04:00pm 11.9 0.4 8.6 80 1.6 W 59 67 32 36 1023.2 - 0.0
22/03:30pm 11.8 0.6 8.3 79 1.7 W 57 69 31 37 1023.2 - 0.0
22/03:00pm 11.9 1.3 8.4 79 1.7 W 54 63 29 34 1023.7 1023.8 0.0
22/02:30pm 12.1 1.0 7.8 75 2.1 W 56 65 30 35 1023.3 - 0.0
22/02:00pm 12.5 1.7 7.8 73 2.3 W 54 67 29 36 1023.4 - 0.0
22/01:30pm 12.8 1.5 7.9 72 2.4 W 57 67 31 36 1023.7 - 0.0
22/01:00pm 13.2 3.4 8.7 74 2.3 W 50 65 27 35 1023.9 - 0.0
22/12:30pm 13.7 3.4 9.7 77 2.1 W 54 61 29 33 1024.2 - 0.0
22/12:00pm 12.9 4.6 9.2 78 1.9 W 43 48 23 26 1024.7 1024.8 0.0
22/11:30am 13.3 5.2 9.9 80 1.8 W 43 48 23 26 1024.8 - 0.0
22/11:00am 13.9 6.0 10.9 82 1.6 W 43 54 23 29 1024.8 - 0.0
22/10:30am 12.5 6.9 10.2 86 1.2 WNW 30 41 16 22 1025.0 - 0.0
22/10:00am 13.0 6.7 11.1 88 1.0 WNW 35 39 19 21 1025.2 - 0.0
22/09:30am 12.3 6.2 10.5 89 0.9 WNW 33 37 18 20 1025.3 - 0.0
22/09:00am 12.0 6.1 10.4 90 0.8 WNW 32 35 17 19 1025.2 1025.4 0.0
22/08:30am 11.9 6.3 10.3 90 0.8 WNW 30 32 16 17 1025.2 - 0.0
22/08:00am 11.9 7.1 10.3 90 0.8 WNW 26 30 14 16 1025.1 - 0.0
22/07:30am 11.6 7.1 10.0 90 0.8 WNW 24 32 13 17 1025.0 - 0.0
22/07:00am 11.7 6.1 10.1 90 0.8 WNW 30 35 16 19 1024.9 - 0.0
22/06:30am 11.5 5.9 10.1 91 0.7 WNW 30 32 16 17 1024.8 - 0.0
22/06:00am 11.5 5.8 9.9 90 0.8 W 30 33 16 18 1024.6 1024.7 0.0
22/05:30am 11.5 5.3 9.9 90 0.8 W 33 39 18 21 1024.5 - 0.0
22/05:00am 11.6 5.6 10.0 90 0.8 W 32 35 17 19 1024.4 - 0.0
22/04:30am 11.5 5.3 9.9 90 0.8 WNW 33 37 18 20 1024.4 - 0.0
22/04:00am 11.5 5.3 10.1 91 0.7 WNW 33 39 18 21 1024.4 - 0.0
22/03:30am 11.3 6.0 9.9 91 0.7 WNW 28 32 15 17 1024.4 - 0.0
22/03:00am 11.0 5.6 9.6 91 0.7 WNW 28 32 15 17 1024.4 1024.5 0.0
22/02:30am 10.9 5.4 9.3 90 0.8 WNW 28 32 15 17 1024.8 - 0.0
22/02:00am 11.0 5.5 9.3 89 0.9 WNW 28 32 15 17 1025.1 - 0.0
22/01:30am 11.2 5.8 9.5 89 0.9 WNW 28 32 15 17 1025.1 - 0.0
22/01:00am 11.2 5.7 9.3 88 1.0 WNW 28 32 15 17 1025.3 - 0.0
22/12:30am 11.0 5.1 8.9 87 1.0 W 30 33 16 18 1025.3 - 0.0
22/12:00am 11.1 4.6 9.0 87 1.0 W 33 37 18 20 1025.4 1025.6 0.0
 
Date/Time
EST
Temp
°C
App
Temp
°C
Dew
Point
°C
Rel
Hum
%
Delta-T
°C
Wind Press
QNH
hPa
Press
MSL
hPa
Rain since
9am
mm
Dir  Spd
km/h
Gust
km/h
Spd
kts
Gust
kts
21/11:30pm 11.1 4.2 9.0 87 1.0 W 35 39 19 21 1025.4 - 0.0
21/11:00pm 11.3 3.4 9.2 87 1.1 WSW 41 48 22 26 1025.4 - 0.0
21/10:30pm 11.3 3.3 9.0 86 1.2 W 41 46 22 25 1025.6 - 0.0
21/10:00pm 11.4 3.4 9.0 85 1.2 W 41 48 22 26 1025.7 - 0.0
21/09:30pm 11.6 3.0 9.0 84 1.3 W 44 50 24 27 1025.8 - 0.0
21/09:00pm 11.5 2.6 9.1 85 1.2 W 46 54 25 29 1025.5 1025.7 0.0
21/08:30pm 11.4 2.5 9.1 86 1.2 W 46 54 25 29 1025.3 - 0.0
21/08:00pm 11.5 3.2 9.2 86 1.2 W 43 50 23 27 1025.4 - 0.0
21/07:30pm 11.4 3.1 9.3 87 1.1 W 43 50 23 27 1025.1 - 0.0
21/07:00pm 11.5 1.8 9.2 86 1.2 W 50 57 27 31 1024.8 - 0.0
21/06:30pm 11.4 0.6 9.1 86 1.2 W 56 61 30 33 1024.2 - 0.0
21/06:00pm 11.6 0.7 9.0 84 1.3 W 56 61 30 33 1023.9 1024.0 0.0
21/05:30pm 12.1 2.7 8.9 81 1.6 W 48 56 26 30 1023.8 - 0.0
21/05:00pm 12.6 2.5 9.1 79 1.8 W 52 59 28 32 1023.6 - 0.0
21/04:30pm 12.9 2.5 9.4 79 1.8 W 54 61 29 33 1023.5 - 0.0
21/04:00pm 12.9 2.9 9.2 78 1.9 W 52 61 28 33 1023.4 - 0.0
21/03:30pm 13.0 2.6 9.3 78 1.9 W 54 63 29 34 1023.3 - 0.0
21/03:00pm 13.5 2.6 9.7 78 2.0 W 57 65 31 35 1023.4 1023.5 0.0
21/02:30pm 13.3 2.6 9.5 78 1.9 W 56 65 30 35 1023.4 - 0.0
21/02:00pm 13.2 2.9 9.6 79 1.8 W 54 63 29 34 1023.5 - 0.0
21/01:30pm 13.3 4.2 9.7 79 1.9 W 48 56 26 30 1023.6 - 0.0
21/01:00pm 13.3 5.1 9.7 79 1.9 WNW 43 50 23 27 1023.9 - 0.0
21/12:30pm 12.8 3.9 9.3 79 1.8 WNW 46 52 25 28 1024.0 - 0.0
21/12:00pm 13.6 4.9 10.0 79 1.9 WNW 46 52 25 28 1024.3 1024.4 0.0
21/11:30am 12.9 6.2 9.7 81 1.6 WNW 35 39 19 21 1024.5 - 0.0
21/11:00am 12.0 5.1 8.8 81 1.6 WNW 35 41 19 22 1024.6 - 0.0
21/10:30am 12.2 4.6 9.0 81 1.6 WNW 39 44 21 24 1024.5 - 0.0
21/10:00am 12.6 5.2 10.0 84 1.3 WNW 39 46 21 25 1024.5 - 0.0
21/09:30am 11.9 4.1 9.6 86 1.2 WNW 41 46 22 25 1024.4 - 0.0
21/09:00am 11.4 3.5 9.5 88 1.0 WNW 41 46 22 25 1024.4 1024.5 0.2
21/08:30am 11.0 3.1 9.4 90 0.8 WNW 41 46 22 25 1024.4 - 0.2
21/08:00am 11.0 3.2 9.6 91 0.7 WNW 41 48 22 26 1024.4 - 0.2
21/07:30am 11.0 3.5 9.4 90 0.8 WNW 39 44 21 24 1024.1 - 0.2
21/07:00am 11.4 4.7 9.8 90 0.8 WNW 35 44 19 24 1023.9 - 0.2
21/06:30am 11.1 4.7 9.5 90 0.8 WNW 33 39 18 21 1023.6 - 0.2
21/06:00am 11.0 3.9 9.4 90 0.8 WNW 37 43 20 23 1023.2 1023.3 0.2
21/05:30am 10.8 3.6 9.2 90 0.8 W 37 43 20 23 1022.8 - 0.2
21/05:00am 10.8 3.6 9.2 90 0.8 W 37 41 20 22 1022.6 - 0.2
21/04:30am 10.7 3.8 9.0 89 0.8 W 35 43 19 23 1022.5 - 0.2
21/04:00am 10.6 2.9 8.5 87 1.0 W 39 48 21 26 1022.3 - 0.2
21/03:30am 11.5 4.7 9.1 85 1.2 W 35 43 19 23 1022.4 - 0.0
21/03:00am 11.2 2.2 8.9 86 1.1 W 46 57 25 31 1022.0 - 0.0
21/02:30am 11.1 3.1 9.0 87 1.0 W 41 46 22 25 1022.3 - 0.0
21/02:00am 11.2 2.6 8.9 86 1.1 W 44 52 24 28 1022.4 - 0.0
21/01:30am 11.1 2.5 9.0 87 1.0 W 44 54 24 29 1022.4 - 0.0
21/01:00am 10.9 1.9 8.8 87 1.0 W 46 54 25 29 1022.3 - 0.0
21/12:30am 11.3 2.7 8.7 84 1.3 W 44 54 24 29 1022.3 - 0.0
21/12:00am 11.4 2.4 8.8 84 1.3 W 46 52 25 28 1022.3 1022.4 0.0
 
Date/Time
EST
Temp
°C
App
Temp
°C
Dew
Point
°C
Rel
Hum
%
Delta-T
°C
Wind Press
QNH
hPa
Press
MSL
hPa
Rain since
9am
mm
Dir  Spd
km/h
Gust
km/h
Spd
kts
Gust
kts
20/11:30pm 11.2 2.2 8.8 85 1.2 W 46 54 25 29 1021.9 - 0.0
20/11:00pm 11.3 2.9 9.0 86 1.2 W 43 48 23 26 1022.1 - 0.0
20/10:30pm 11.1 2.6 8.7 85 1.2 W 43 52 23 28 1022.1 - 0.0
20/10:00pm 11.1 1.6 8.5 84 1.3 W 48 54 26 29 1022.0 - 0.0
20/09:30pm 11.1 2.0 8.3 83 1.4 W 46 54 25 29 1021.9 - 0.0
20/09:00pm 11.4 2.7 8.4 82 1.5 W 44 50 24 27 1021.6 1021.7 0.0
20/08:30pm 11.3 1.7 7.8 79 1.7 W 48 56 26 30 1021.4 - 0.0
20/08:00pm 11.7 2.4 7.4 75 2.1 W 46 54 25 29 1021.0 - 0.0
20/07:30pm 11.5 2.4 6.8 73 2.2 WNW 44 54 24 29 1020.6 - 0.0
20/07:00pm 11.4 1.2 6.9 74 2.2 W 50 57 27 31 1020.3 - 0.0
20/06:30pm 11.3 1.5 7.0 75 2.1 W 48 56 26 30 1020.2 - 0.0
20/06:00pm 11.2 1.4 6.9 75 2.0 W 48 57 26 31 1019.9 1020.0 0.0
20/05:30pm 11.6 0.7 7.3 75 2.1 W 54 61 29 33 1019.5 - 0.0
20/05:00pm 11.9 1.5 7.6 75 2.1 W 52 59 28 32 1019.1 - 0.0
20/04:30pm 12.0 1.5 7.5 74 2.2 WNW 52 59 28 32 1019.1 - 0.0
20/04:00pm 12.5 2.5 8.0 74 2.2 W 50 57 27 31 1019.1 - 0.0
20/03:30pm 12.4 1.6 7.7 73 2.3 W 54 61 29 33 1018.9 - 0.0
20/03:00pm 13.1 2.5 8.4 73 2.3 W 54 67 29 36 1019.0 1019.2 0.0
20/02:30pm 11.4 1.9 6.9 74 2.2 W 46 56 25 30 1019.2 - 0.0
20/02:00pm 13.0 2.9 7.2 68 2.8 W 50 56 27 30 1019.1 - 0.0
20/01:30pm 13.4 4.1 7.6 68 2.9 W 46 54 25 29 1019.0 - 0.0
20/01:00pm 13.7 4.6 6.8 63 3.4 W 44 50 24 27 1019.0 - 0.0
20/12:30pm 14.1 5.2 6.9 62 3.5 W 43 50 23 27 1019.3 - 0.0
20/12:00pm 13.5 4.2 6.1 61 3.5 W 44 54 24 29 1019.2 1019.4 0.0
20/11:30am 13.5 4.0 6.8 64 3.3 W 46 54 25 29 1019.2 - 0.0
20/11:00am 12.9 3.4 6.9 67 2.9 W 46 54 25 29 1018.8 - 0.0
20/10:30am 12.7 4.5 8.0 73 2.3 W 41 48 22 26 1018.6 - 0.0
20/10:00am 10.7 2.5 6.5 75 2.0 WNW 39 48 21 26 1018.3 - 0.0
20/09:30am 10.2 2.6 6.0 75 2.0 WNW 35 44 19 24 1018.0 - 0.0
20/09:09am 10.6 2.2 5.8 72 2.2 WNW 39 43 21 23 1018.1 - 0.0
20/09:00am 10.6 2.6 5.8 72 2.2 W 37 48 20 26 1018.0 1018.2 0.6
20/08:30am 10.9 3.7 6.1 72 2.3 WNW 33 46 18 25 1018.0 - 0.6
20/08:00am 10.7 2.6 5.3 69 2.5 W 37 43 20 23 1017.8 - 0.6
20/07:30am 10.3 1.7 4.9 69 2.5 W 39 44 21 24 1017.5 - 0.6
20/07:00am 10.0 2.2 4.8 70 2.3 W 35 41 19 22 1017.3 - 0.6
20/06:30am 9.9 1.3 4.7 70 2.3 W 39 44 21 24 1016.9 - 0.6
20/06:00am 9.8 0.8 4.8 71 2.3 W 41 48 22 26 1016.5 1016.6 0.6
20/05:30am 9.4 2.2 4.8 73 2.1 WSW 32 37 17 20 1016.3 - 0.6
20/05:00am 9.2 1.7 4.6 73 2.1 WSW 33 39 18 21 1016.1 - 0.6
20/04:30am 9.2 1.9 4.4 72 2.1 WSW 32 41 17 22 1015.9 - 0.6
20/04:00am 9.2 1.3 4.2 71 2.2 W 35 43 19 23 1015.7 - 0.6
20/03:30am 9.0 -0.1 4.0 71 2.2 W 41 48 22 26 1015.6 - 0.6
20/03:00am 9.1 1.2 4.3 72 2.1 WSW 35 46 19 25 1015.6 1015.7 0.6
20/02:54am 9.1 1.8 4.3 72 2.1 WSW 32 37 17 20 1015.8 - 0.6
20/02:30am 9.4 1.1 4.2 70 2.3 W 37 44 20 24 1015.8 - 0.6
20/02:00am 9.4 0.2 3.4 66 2.6 WSW 41 46 22 25 1015.9 - 0.6
20/01:30am 9.7 0.2 3.7 66 2.6 WSW 43 48 23 26 1016.0 - 0.6
20/01:07am 9.6 0.1 4.0 68 2.5 WSW 43 52 23 28 1016.0 - 0.6
20/01:00am 9.6 -0.5 4.0 68 2.5 W 46 56 25 30 1015.9 - 0.6
20/12:57am 9.4 -1.5 3.8 68 2.5 W 50 57 27 31 1015.7 - 0.6
20/12:30am 9.8 0.8 4.4 69 2.4 WSW 41 48 22 26 1015.7 - 0.6
20/12:00am 9.6 1.0 4.4 70 2.3 WSW 39 44 21 24 1015.8 1015.9 0.6
 
Date/Time
EST
Temp
°C
App
Temp
°C
Dew
Point
°C
Rel
Hum
%
Delta-T
°C
Wind Press
QNH
hPa
Press
MSL
hPa
Rain since
9am
mm
Dir  Spd
km/h
Gust
km/h
Spd
kts
Gust
kts
19/11:30pm 9.8 0.4 4.4 69 2.4 WSW 43 50 23 27 1015.7 - 0.6
19/11:00pm 9.8 0.8 4.4 69 2.4 WSW 41 50 22 27 1015.8 - 0.6
19/10:30pm 9.8 0.5 4.8 71 2.3 WSW 43 50 23 27 1015.6 - 0.6
19/10:00pm 9.8 -0.2 4.4 69 2.4 WSW 46 54 25 29 1015.4 - 0.6
19/09:30pm 9.8 -0.1 4.6 70 2.3 WSW 46 54 25 29 1015.2 - 0.6
19/09:00pm 9.7 -0.6 4.5 70 2.3 WSW 48 57 26 31 1014.9 1015.0 0.6
19/08:30pm 9.8 -0.9 4.4 69 2.4 WSW 50 56 27 30 1014.6 - 0.6
19/08:00pm 9.8 -0.4 5.0 72 2.2 W 48 56 26 30 1014.3 - 0.6
19/07:30pm 9.9 0.4 5.1 72 2.2 WSW 44 56 24 30 1014.0 - 0.6
19/07:00pm 9.7 -1.8 4.5 70 2.3 WSW 54 63 29 34 1013.6 - 0.6
19/06:30pm 9.7 -1.7 4.9 72 2.2 W 54 61 29 33 1013.1 - 0.6
19/06:00pm 9.8 -2.0 5.0 72 2.2 W 56 65 30 35 1012.6 1012.7 0.6
19/05:30pm 10.0 -2.4 4.8 70 2.3 W 59 65 32 35 1012.3 - 0.6

Other Formats:

Comma delimited format used in spreadsheet applications
http://www.bom.gov.au/fwo/IDT60801/IDT60801.94949.axf

JavaScript Object Notation format (JSON) in row-major order
http://www.bom.gov.au/fwo/IDT60801/IDT60801.94949.json